Time;durP1;ratioP1;P1;durP2;ratioP2;P2;SDS_P1;SDS_P2;PMS_P1;PMS_P2;Temp;Humidity;BMP_temperature;BMP_pressure;BME280_temperature;BME280_humidity;BME280_pressure;Samples;Min_cycle;Max_cycle;Signal;HPM_P1;HPM_P2
2022/11/03 00:01:47;;;;;;;13.05;2.42;;;;;;;10.63;75.00;101412.41;5021569;28;20045;-70
2022/11/03 00:04:21;;;;;;;10.18;2.15;;;;;;;10.61;74.96;101411.56;5015953;28;20048;-69
2022/11/03 00:06:52;;;;;;;11.05;2.42;;;;;;;10.60;75.21;101408.97;5006759;28;20055;-69
2022/11/03 00:09:22;;;;;;;12.85;2.13;;;;;;;10.59;75.31;101405.47;5008205;28;20130;-69
2022/11/03 00:11:50;;;;;;;9.52;2.28;;;;;;;10.56;75.30;101393.22;4997888;28;20059;-69
2022/11/03 00:14:18;;;;;;;9.85;2.13;;;;;;;10.56;75.38;101406.41;5011319;28;20566;-70
2022/11/03 00:16:47;;;;;;;12.60;2.30;;;;;;;10.56;75.59;101400.28;5012086;28;20461;-70
2022/11/03 00:19:15;;;;;;;12.15;2.10;;;;;;;10.53;75.43;101395.91;5006638;28;20138;-70
2022/11/03 00:21:43;;;;;;;11.88;2.10;;;;;;;10.52;75.45;101390.69;5010407;28;20046;-69
2022/11/03 00:24:11;;;;;;;14.07;2.50;;;;;;;10.51;75.45;101395.09;5011157;28;20054;-70
2022/11/03 00:26:38;;;;;;;12.05;2.33;;;;;;;10.49;75.69;101391.63;5007636;28;20050;-69
2022/11/03 00:29:12;;;;;;;9.18;2.22;;;;;;;10.47;75.76;101387.28;5006269;28;20050;-71
2022/11/03 00:31:43;;;;;;;13.45;2.45;;;;;;;10.45;76.00;101383.81;5010211;28;20046;-70
2022/11/03 00:34:11;;;;;;;15.98;2.20;;;;;;;10.44;76.19;101377.66;5012298;28;20101;-71
2022/11/03 00:36:43;;;;;;;12.88;2.35;;;;;;;10.43;76.35;101373.28;5007463;28;20107;-71
2022/11/03 00:39:11;;;;;;;12.38;3.00;;;;;;;10.41;76.00;101375.09;5006985;28;20058;-71
2022/11/03 00:41:39;;;;;;;10.63;2.33;;;;;;;10.40;76.28;101368.09;5013769;28;20038;-71
2022/11/03 00:44:09;;;;;;;7.85;2.00;;;;;;;10.39;76.66;101361.09;5009711;28;20075;-71
2022/11/03 00:46:36;;;;;;;13.43;2.33;;;;;;;10.37;76.66;101363.75;4995902;28;20050;-70
2022/11/03 00:49:12;;;;;;;12.18;1.92;;;;;;;10.38;76.75;101361.97;5006409;28;20120;-68
2022/11/03 00:51:40;;;;;;;12.70;2.28;;;;;;;10.34;76.81;101347.97;5005510;28;20042;-70
2022/11/03 00:54:07;;;;;;;16.75;2.45;;;;;;;10.33;76.82;101346.22;5009425;28;20042;-71
2022/11/03 00:56:39;;;;;;;14.60;2.42;;;;;;;10.34;76.94;101347.09;5009456;28;20050;-71
2022/11/03 00:59:09;;;;;;;10.02;2.08;;;;;;;10.32;77.11;101341.84;5013364;28;20039;-70
2022/11/03 01:01:43;;;;;;;13.65;2.50;;;;;;;10.33;77.46;101340.06;5010960;28;20423;-68
2022/11/03 01:07:04;;;;;;;11.77;2.25;;;;;;;10.32;77.49;101327.81;5004584;28;20058;-71
2022/11/03 01:09:42;;;;;;;8.80;1.73;;;;;;;10.34;77.49;101329.53;5005021;28;20525;-70
2022/11/03 01:12:16;;;;;;;13.50;2.10;;;;;;;10.32;77.85;101318.13;5011976;28;20527;-71
2022/11/03 01:14:52;;;;;;;;;;;;;;;10.28;77.68;101328.78;5003113;28;20042;-70
2022/11/03 01:17:26;;;;;;;16.05;2.75;;;;;;;10.24;78.15;101318.28;5017202;28;19925;-68
2022/11/03 01:19:54;;;;;;;9.85;2.28;;;;;;;10.21;77.80;101315.75;5002629;28;20954;-71
2022/11/03 01:22:23;;;;;;;15.48;2.40;;;;;;;10.19;77.82;101316.66;4994499;28;20046;-71
2022/11/03 01:24:53;;;;;;;9.38;2.22;;;;;;;10.18;78.13;101314.91;5009462;28;20035;-71
2022/11/03 01:27:21;;;;;;;9.48;1.88;;;;;;;10.14;78.16;101311.47;5007363;28;20496;-71
2022/11/03 01:29:49;;;;;;;12.60;2.53;;;;;;;10.12;78.58;101305.41;5004527;28;20069;-71
2022/11/03 01:32:16;;;;;;;13.70;2.40;;;;;;;10.10;78.46;101302.78;5010340;28;20042;-71
2022/11/03 01:34:43;;;;;;;12.18;2.35;;;;;;;10.07;78.34;101297.56;5012156;28;20110;-70
2022/11/03 01:37:10;;;;;;;12.65;2.63;;;;;;;10.06;78.53;101300.25;5009775;28;20090;-71
2022/11/03 01:39:37;;;;;;;10.45;2.17;;;;;;;10.05;78.61;101277.44;5004860;28;20046;-70
2022/11/03 01:42:04;;;;;;;15.30;2.55;;;;;;;10.05;78.78;101282.69;5006736;28;20559;-70
2022/11/03 01:44:40;;;;;;;18.48;2.60;;;;;;;10.06;79.18;101280.06;5010439;28;20081;-70
2022/11/03 01:47:19;;;;;;;12.55;2.15;;;;;;;10.08;79.45;101275.59;5009954;28;20491;-70
2022/11/03 01:50:04;;;;;;;10.85;1.92;;;;;;;10.08;79.32;101270.31;5010070;28;20519;-69
2022/11/03 01:52:46;;;;;;;9.70;2.13;;;;;;;10.08;79.22;101262.44;5016524;28;20042;-70
2022/11/03 01:55:20;;;;;;;10.93;2.53;;;;;;;10.10;79.47;101258.00;5008564;28;20061;-70
2022/11/03 01:58:06;;;;;;;13.93;2.20;;;;;;;10.10;79.44;101251.88;5008130;28;20043;-70
2022/11/03 02:00:34;;;;;;;12.10;1.98;;;;;;;10.14;79.50;101250.03;5009384;28;20153;-71
2022/11/03 02:03:03;;;;;;;11.43;2.08;;;;;;;10.14;79.46;101242.97;5012228;28;20070;-71
2022/11/03 02:05:30;;;;;;;11.13;2.42;;;;;;;10.16;79.35;101249.09;5009593;28;20085;-71
2022/11/03 02:08:27;;;;;;;11.45;2.20;;;;;;;10.18;79.43;101244.66;5008602;28;20054;-71
2022/11/03 02:10:56;;;;;;;12.52;2.30;;;;;;;10.16;79.35;101230.66;4997191;28;20066;-71
2022/11/03 02:13:26;;;;;;;10.95;2.78;;;;;;;10.15;79.16;101233.34;4999498;28;20039;-71
2022/11/03 02:15:57;;;;;;;12.40;2.40;;;;;;;10.18;79.17;101238.50;5010280;28;20043;-72
2022/11/03 02:18:33;;;;;;;9.52;2.00;;;;;;;10.16;79.21;101233.28;5021154;28;20051;-72
2022/11/03 02:21:40;;;;;;;15.48;2.30;;;;;;;10.16;79.41;101229.78;5014223;28;20046;-72
2022/11/03 02:24:49;;;;;;;16.27;2.47;;;;;;;10.13;79.33;101230.72;5010938;28;20513;-71
2022/11/03 02:27:20;;;;;;;11.50;2.60;;;;;;;10.08;79.35;101217.66;5004056;28;20053;-70
2022/11/03 02:29:48;;;;;;;9.68;2.28;;;;;;;10.07;79.64;101204.50;5008878;28;20046;-70
2022/11/03 02:32:25;;;;;;;10.98;2.25;;;;;;;10.06;79.52;101208.94;5014810;28;20042;-70
2022/11/03 02:35:25;;;;;;;14.52;2.30;;;;;;;10.05;79.48;101212.47;5003750;28;20122;-68
2022/11/03 02:37:58;;;;;;;12.10;2.10;;;;;;;10.06;79.65;101211.56;5010649;28;20049;-69
2022/11/03 02:40:33;;;;;;;10.38;2.10;;;;;;;10.07;79.64;101205.38;5011675;28;20109;-68
2022/11/03 02:43:04;;;;;;;12.65;2.10;;;;;;;10.07;79.53;101199.25;4997975;28;20087;-69
2022/11/03 02:45:32;;;;;;;8.77;1.83;;;;;;;10.06;79.56;101193.13;5011233;28;20065;-69
2022/11/03 02:48:02;;;;;;;13.52;2.05;;;;;;;10.06;79.57;101192.25;5009457;28;20038;-68
2022/11/03 02:50:33;;;;;;;11.05;2.15;;;;;;;10.09;79.52;101194.81;5005552;28;20164;-71
2022/11/03 02:53:12;;;;;;;12.68;2.40;;;;;;;10.13;79.40;101192.97;5012973;28;20077;-71
2022/11/03 02:56:03;;;;;;;9.77;2.10;;;;;;;10.12;79.60;101185.97;5011726;28;20988;-68
2022/11/03 02:58:55;;;;;;;11.00;2.13;;;;;;;10.14;79.16;101178.91;4999804;28;20117;-70
2022/11/03 03:01:35;;;;;;;8.75;2.22;;;;;;;10.14;79.62;101174.47;5010369;28;20209;-71
2022/11/03 03:04:08;;;;;;;11.73;2.60;;;;;;;10.14;79.62;101171.00;5011169;28;20519;-71
2022/11/03 03:06:47;;;;;;;10.10;2.28;;;;;;;10.20;79.65;101171.72;5012604;28;20061;-71
2022/11/03 03:09:23;;;;;;;10.05;1.90;;;;;;;10.20;79.44;101163.81;5010694;28;20039;-70
2022/11/03 03:11:55;;;;;;;10.27;2.05;;;;;;;10.21;79.53;101160.28;4998157;28;20090;-70
2022/11/03 03:14:37;;;;;;;7.22;1.70;;;;;;;10.22;79.43;101156.75;5007626;28;20133;-70
2022/11/03 03:17:17;;;;;;;8.27;1.95;;;;;;;10.23;79.46;101150.56;5011400;28;20047;-71
2022/11/03 03:20:05;;;;;;;12.38;1.92;;;;;;;10.25;79.09;101135.59;5013190;28;20508;-70
2022/11/03 03:22:35;;;;;;;8.40;1.65;;;;;;;10.30;79.45;101145.16;5012148;28;20042;-70
2022/11/03 03:25:29;;;;;;;8.82;2.10;;;;;;;10.31;79.37;101144.25;5010329;28;20104;-70
2022/11/03 03:28:09;;;;;;;9.05;1.98;;;;;;;10.31;79.27;101137.19;5011214;28;20728;-69
2022/11/03 03:30:40;;;;;;;11.25;1.90;;;;;;;10.33;79.06;101145.06;5004549;28;20042;-69
2022/11/03 03:33:09;;;;;;;10.07;1.85;;;;;;;10.33;79.18;101138.03;5004219;28;20038;-69
2022/11/03 03:35:42;;;;;;;12.73;2.25;;;;;;;10.37;79.08;101130.91;5010269;28;20046;-70
2022/11/03 03:38:27;;;;;;;8.30;1.88;;;;;;;10.37;78.84;101130.91;5003611;28;20050;-70
2022/11/03 03:41:00;;;;;;;11.00;2.17;;;;;;;10.40;78.95;101133.53;5009781;28;20054;-69
2022/11/03 03:43:35;;;;;;;9.60;1.90;;;;;;;10.41;79.02;101128.19;5010829;28;20113;-70
2022/11/03 03:46:09;;;;;;;10.35;2.00;;;;;;;10.44;78.84;101131.66;5003097;28;20074;-69
2022/11/03 03:48:37;;;;;;;11.68;2.15;;;;;;;10.45;78.90;101126.34;5006704;28;20109;-69
2022/11/03 03:51:06;;;;;;;13.95;2.13;;;;;;;10.46;78.92;101124.59;5012462;28;20633;-71
2022/11/03 03:53:33;;;;;;;17.15;2.00;;;;;;;10.48;78.88;101117.53;4999471;28;20532;-70
2022/11/03 03:56:00;;;;;;;14.88;2.22;;;;;;;10.50;78.72;101113.06;5011585;28;20124;-70
2022/11/03 03:58:27;;;;;;;8.77;1.83;;;;;;;10.52;78.87;101100.69;5009508;28;20042;-70
2022/11/03 04:00:54;;;;;;;15.02;2.10;;;;;;;10.52;78.69;101096.31;5010509;28;20042;-70
2022/11/03 04:03:25;;;;;;;9.75;1.92;;;;;;;10.57;78.90;101096.19;5008952;28;20047;-70
2022/11/03 04:05:55;;;;;;;11.35;2.20;;;;;;;10.61;78.85;101094.34;5006511;28;20049;-70
2022/11/03 04:08:22;;;;;;;10.93;2.15;;;;;;;10.61;78.85;101089.91;5003217;28;20139;-69
2022/11/03 04:24:47;;;;;;;10.27;1.85;;;;;;;10.70;78.25;101083.53;5007376;28;20050;-69
2022/11/03 04:27:28;;;;;;;7.57;1.55;;;;;;;10.70;78.30;101073.00;5005077;28;20495;-70
2022/11/03 04:30:05;;;;;;;8.50;1.70;;;;;;;10.69;78.14;101065.97;5010263;28;20934;-70
2022/11/03 04:32:33;;;;;;;15.85;1.90;;;;;;;10.72;78.22;101068.56;5010211;28;20054;-70
2022/11/03 04:35:17;;;;;;;11.65;2.28;;;;;;;10.72;78.12;101058.00;5010305;28;20050;-70
2022/11/03 04:37:50;;;;;;;11.20;1.58;;;;;;;10.71;78.19;101056.28;5000061;28;20042;-69
2022/11/03 04:40:18;;;;;;;12.07;2.10;;;;;;;10.71;78.23;101053.63;5004385;28;20051;-69
2022/11/03 04:42:47;;;;;;;10.63;2.10;;;;;;;10.72;78.12;101058.84;4998752;28;20034;-69
2022/11/03 04:45:33;;;;;;;11.60;2.30;;;;;;;10.72;78.11;101050.94;5006955;28;20477;-70
2022/11/03 04:48:20;;;;;;;10.20;1.95;;;;;;;10.70;78.00;101049.25;5004943;28;20050;-70
2022/11/03 04:50:52;;;;;;;8.25;1.92;;;;;;;10.66;78.09;101043.22;5011485;28;20101;-70
2022/11/03 04:53:21;;;;;;;9.35;1.98;;;;;;;10.66;78.21;101048.50;5007329;28;20913;-70
2022/11/03 04:55:53;;;;;;;7.57;1.95;;;;;;;10.64;78.18;101038.88;5001364;28;20097;-70
2022/11/03 04:58:25;;;;;;;8.68;2.05;;;;;;;10.62;77.99;101040.69;5008653;28;20077;-71
2022/11/03 05:00:57;;;;;;;11.25;1.88;;;;;;;10.59;78.32;101038.13;5009822;28;20046;-70
2022/11/03 05:03:31;;;;;;;8.23;1.90;;;;;;;10.56;78.40;101026.75;5014329;28;20054;-70
2022/11/03 05:06:10;;;;;;;10.48;2.00;;;;;;;10.53;78.74;101021.56;5004778;28;20038;-71
2022/11/03 05:08:38;;;;;;;9.15;2.08;;;;;;;10.51;78.25;101026.03;5008157;28;20074;-70
2022/11/03 05:11:24;;;;;;;10.32;2.03;;;;;;;10.53;78.40;101026.00;5009575;28;20054;-70
2022/11/03 05:13:51;;;;;;;13.07;2.13;;;;;;;10.51;78.55;101025.16;5008722;28;20054;-69
2022/11/03 05:16:19;;;;;;;9.35;1.85;;;;;;;10.52;78.84;101024.25;5006935;28;20043;-70
2022/11/03 05:18:49;;;;;;;7.78;1.80;;;;;;;10.52;78.63;101021.63;5008175;28;20042;-70
2022/11/03 05:21:21;;;;;;;8.73;1.80;;;;;;;10.52;78.85;101013.72;5011410;28;20046;-70
2022/11/03 05:24:02;;;;;;;9.93;2.17;;;;;;;10.53;78.92;101012.81;5009910;28;20042;-69
2022/11/03 05:26:34;;;;;;;12.68;2.53;;;;;;;10.47;78.96;101011.22;5018379;28;20537;-69
2022/11/03 05:29:39;;;;;;;12.40;2.05;;;;;;;10.49;78.97;101001.50;5000323;28;20038;-69
2022/11/03 05:32:13;;;;;;;;;;;;;;;10.46;78.95;101000.72;5012535;28;20054;-70
2022/11/03 05:34:45;;;;;;;10.60;2.25;;;;;;;10.48;79.15;101001.53;5008835;28;19925;-70
2022/11/03 05:37:27;;;;;;;10.10;2.10;;;;;;;10.46;79.17;100993.66;5008143;28;20050;-69
2022/11/03 05:40:14;;;;;;;7.38;2.00;;;;;;;10.47;79.43;100997.19;5003286;28;20043;-68
2022/11/03 05:42:45;;;;;;;10.98;2.42;;;;;;;10.44;79.47;100990.19;5022169;28;20125;-68
2022/11/03 05:45:33;;;;;;;8.45;1.98;;;;;;;10.46;79.29;100980.47;5005582;28;20050;-68
2022/11/03 05:48:10;;;;;;;13.43;2.13;;;;;;;10.48;79.58;100981.31;5004999;28;20505;-69
2022/11/03 05:50:41;;;;;;;10.20;2.08;;;;;;;10.48;79.94;100973.41;5000277;28;20054;-71
2022/11/03 05:53:31;;;;;;;9.00;1.98;;;;;;;10.56;80.23;100973.19;5009191;28;20775;-72
2022/11/03 05:56:04;;;;;;;7.40;2.25;;;;;;;10.74;81.60;100973.56;5017013;28;20483;-71
2022/11/03 05:58:38;;;;;;;8.45;1.90;;;;;;;10.87;80.89;100967.03;5010775;28;20093;-71
2022/11/03 06:01:36;;;;;;;10.75;2.08;;;;;;;10.97;80.50;100964.97;5009641;28;20047;-71
2022/11/03 06:04:17;;;;;;;11.43;2.40;;;;;;;11.03;79.97;100951.63;5009909;28;20039;-72
2022/11/03 06:06:53;;;;;;;10.75;1.90;;;;;;;11.09;79.76;100956.69;4994348;28;20059;-72
2022/11/03 06:09:25;;;;;;;7.82;1.75;;;;;;;11.13;79.41;100958.34;5019089;28;20039;-72
2022/11/03 06:11:57;;;;;;;14.27;2.28;;;;;;;11.16;79.15;100944.19;4996122;28;20046;-71
2022/11/03 06:14:28;;;;;;;7.68;1.60;;;;;;;11.22;79.17;100936.06;5001023;28;20121;-72
2022/11/03 06:17:06;;;;;;;7.75;2.10;;;;;;;11.27;78.75;100938.56;5014374;28;20042;-71
2022/11/03 06:19:46;;;;;;;10.50;2.40;;;;;;;11.29;78.56;100936.72;5000312;28;20070;-71
2022/11/03 06:22:36;;;;;;;14.63;2.20;;;;;;;11.29;78.63;100929.66;5008368;28;20556;-71
2022/11/03 06:25:29;;;;;;;11.73;2.00;;;;;;;11.35;78.54;100936.53;5015244;28;20047;-71
2022/11/03 06:28:05;;;;;;;12.50;2.50;;;;;;;11.41;78.20;100933.72;5009824;28;20054;-71
2022/11/03 06:30:37;;;;;;;10.32;1.70;;;;;;;11.42;78.13;100929.28;5010508;28;20490;-71
2022/11/03 06:33:23;;;;;;;13.82;2.72;;;;;;;11.44;78.16;100916.91;5009669;28;20046;-71
2022/11/03 06:35:55;;;;;;;9.70;1.95;;;;;;;11.43;78.03;100920.44;5011703;28;20093;-72
2022/11/03 06:38:28;;;;;;;8.50;1.80;;;;;;;11.45;78.09;100924.75;5006804;28;20492;-71
2022/11/03 06:41:00;;;;;;;12.55;2.22;;;;;;;11.43;78.17;100923.09;5011612;28;20078;-71
2022/11/03 06:43:39;;;;;;;8.85;1.88;;;;;;;11.44;78.26;100928.34;5012512;28;20035;-71
2022/11/03 06:46:25;;;;;;;6.65;2.33;;;;;;;11.50;78.43;100919.31;5002577;28;20042;-72
2022/11/03 06:48:57;;;;;;;10.98;3.03;;;;;;;11.49;77.98;100913.19;5011768;28;20042;-71
2022/11/03 06:51:28;;;;;;;8.43;2.50;;;;;;;11.49;78.00;100902.63;5006263;28;20768;-71
2022/11/03 06:54:00;;;;;;;12.00;3.03;;;;;;;11.50;78.28;100912.28;5012228;28;20057;-71
2022/11/03 06:56:34;;;;;;;11.48;2.80;;;;;;;11.54;78.12;100901.63;5010824;28;20092;-71
2022/11/03 06:59:01;;;;;;;5.90;2.10;;;;;;;11.53;78.01;100902.53;5009787;28;20049;-70
2022/11/03 07:01:32;;;;;;;16.70;4.90;;;;;;;11.57;78.36;100902.38;4997199;28;20129;-70
2022/11/03 07:04:15;;;;;;;12.68;2.50;;;;;;;11.62;78.44;100892.53;5015543;28;20441;-70
2022/11/03 07:06:44;;;;;;;12.70;2.83;;;;;;;11.65;78.26;100900.34;5004450;28;20057;-70
2022/11/03 07:09:22;;;;;;;8.02;3.22;;;;;;;11.69;78.31;100898.47;5006213;28;20062;-71
2022/11/03 07:11:56;;;;;;;13.80;4.45;;;;;;;11.71;78.20;100894.00;5014708;28;20939;-71
2022/11/03 07:14:31;;;;;;;11.77;3.28;;;;;;;11.73;78.16;100891.28;5014172;28;20529;-71
2022/11/03 07:17:06;;;;;;;;;;;;;;;11.73;78.31;100889.53;5008685;28;20480;-70
2022/11/03 07:19:42;;;;;;;10.40;3.13;;;;;;;11.72;78.11;100893.09;5012570;28;19925;-70
2022/11/03 07:22:22;;;;;;;15.45;5.25;;;;;;;11.65;78.12;100891.53;5007224;28;20484;-70
2022/11/03 07:24:53;;;;;;;12.57;3.90;;;;;;;11.59;78.16;100900.56;5010926;28;20042;-70
2022/11/03 07:27:28;;;;;;;7.70;2.90;;;;;;;11.57;78.39;100897.13;5013947;28;20927;-70
2022/11/03 07:30:17;;;;;;;11.00;3.25;;;;;;;11.54;78.52;100897.22;5011406;28;20054;-70
2022/11/03 07:32:51;;;;;;;10.95;2.50;;;;;;;11.50;78.65;100892.94;5012768;28;20046;-70
2022/11/03 07:35:35;;;;;;;8.60;2.20;;;;;;;11.50;78.71;100892.94;5013498;28;20876;-70
2022/11/03 07:38:26;;;;;;;12.35;2.65;;;;;;;11.52;78.94;100891.09;5004117;28;20552;-69
2022/11/03 07:40:57;;;;;;;10.35;2.45;;;;;;;11.55;78.99;100884.88;5012237;28;20046;-69
2022/11/03 07:43:32;;;;;;;11.18;2.78;;;;;;;11.58;78.58;100884.75;5006332;28;20054;-69
2022/11/03 07:46:04;;;;;;;;;;;;;;;11.59;78.83;100875.94;5012171;28;20045;-70
2022/11/03 07:48:50;;;;;;;11.27;2.80;;;;;;;11.65;78.71;100876.59;5010114;28;20022;-70
2022/11/03 07:51:31;;;;;;;11.30;2.33;;;;;;;11.67;78.63;100865.97;5012790;28;20046;-70
2022/11/03 07:54:11;;;;;;;15.20;2.47;;;;;;;11.70;78.67;100857.94;5011843;28;20936;-69
2022/11/03 07:56:45;;;;;;;8.27;2.38;;;;;;;11.71;78.59;100850.88;5015908;28;21006;-70
2022/11/03 07:59:20;;;;;;;10.83;2.87;;;;;;;11.74;78.74;100853.41;5011733;28;20052;-70
2022/11/03 08:01:54;;;;;;;7.47;2.42;;;;;;;11.75;78.44;100848.06;5011346;28;20249;-70
2022/11/03 08:04:25;;;;;;;8.90;2.50;;;;;;;11.78;78.37;100847.97;5011272;28;20034;-70
2022/11/03 08:06:52;;;;;;;8.77;2.40;;;;;;;11.82;78.29;100846.06;5011300;28;20150;-70
2022/11/03 08:09:20;;;;;;;9.85;2.50;;;;;;;11.86;78.07;100844.19;5005125;28;20878;-69
2022/11/03 08:11:48;;;;;;;10.02;2.28;;;;;;;11.91;78.21;100845.75;5008761;28;20050;-70
2022/11/03 08:14:16;;;;;;;8.02;2.17;;;;;;;11.97;78.14;100842.03;5010612;28;21024;-69
2022/11/03 08:16:43;;;;;;;9.45;2.30;;;;;;;12.00;77.79;100841.94;5011955;28;20460;-70
2022/11/03 08:19:11;;;;;;;6.70;1.95;;;;;;;12.04;77.88;100843.56;4999493;28;20046;-70
2022/11/03 08:21:38;;;;;;;10.10;2.67;;;;;;;12.07;77.67;100846.09;5007576;28;20081;-70
2022/11/03 08:24:06;;;;;;;13.25;2.83;;;;;;;12.10;77.47;100835.41;5012090;28;20045;-69
2022/11/03 08:26:33;;;;;;;12.65;2.35;;;;;;;12.14;77.58;100830.88;5012090;28;20048;-70
2022/11/03 08:29:00;;;;;;;13.10;2.55;;;;;;;12.18;77.42;100832.50;5009250;28;20038;-70
2022/11/03 08:31:27;;;;;;;13.00;2.67;;;;;;;12.22;77.09;100836.72;5010679;28;20062;-70
2022/11/03 08:33:54;;;;;;;14.02;3.05;;;;;;;12.25;76.98;100823.41;5011385;28;20101;-69
2022/11/03 08:36:21;;;;;;;9.15;2.60;;;;;;;12.30;77.02;100812.66;5008337;28;20130;-69
2022/11/03 08:38:48;;;;;;;12.30;2.20;;;;;;;12.35;76.83;100809.84;4997822;28;20440;-70
2022/11/03 08:41:15;;;;;;;9.63;2.83;;;;;;;12.38;76.74;100800.00;5011824;28;20043;-70
2022/11/03 08:43:42;;;;;;;9.82;1.90;;;;;;;12.43;76.29;100794.53;5011000;28;20089;-70
2022/11/03 08:46:09;;;;;;;7.85;2.30;;;;;;;12.47;76.18;100792.63;5011810;28;20045;-70
2022/11/03 08:48:44;;;;;;;;;;;;;;;12.46;76.19;100790.94;5008268;28;20050;-70
2022/11/03 08:51:14;;;;;;;12.38;4.22;;;;;;;12.48;76.01;100782.00;5001509;28;19961;-70
2022/11/03 08:53:42;;;;;;;11.68;3.30;;;;;;;12.53;75.96;100771.25;5011165;28;20042;-70
2022/11/03 08:56:11;;;;;;;16.95;5.57;;;;;;;12.58;75.94;100756.06;5010984;28;20042;-70
2022/11/03 08:58:42;;;;;;;14.88;4.88;;;;;;;12.65;75.56;100757.56;5008940;28;20140;-70
2022/11/03 09:01:10;;;;;;;22.50;8.63;;;;;;;12.75;75.28;100755.38;5009819;28;20505;-70
2022/11/03 09:03:38;;;;;;;12.52;2.65;;;;;;;12.83;74.84;100761.22;5023204;28;20888;-70
2022/11/03 09:06:06;;;;;;;7.90;2.42;;;;;;;12.94;74.77;100746.69;5025732;28;20060;-70
2022/11/03 09:08:34;;;;;;;7.50;2.00;;;;;;;13.06;74.41;100746.16;5019841;28;20525;-70
2022/11/03 09:11:21;;;;;;;10.15;1.95;;;;;;;13.16;73.88;100738.72;5011710;28;20504;-70
2022/11/03 09:13:48;;;;;;;14.02;2.08;;;;;;;13.25;73.56;100724.19;5027527;28;20049;-70
2022/11/03 09:16:15;;;;;;;9.10;2.05;;;;;;;13.29;73.28;100718.72;5031388;28;20131;-70
2022/11/03 09:18:44;;;;;;;6.90;1.55;;;;;;;13.38;72.75;100698.06;5030649;28;20040;-71
2022/11/03 09:21:12;;;;;;;9.23;2.05;;;;;;;13.42;72.26;100695.25;5021503;28;20046;-70
2022/11/03 09:23:39;;;;;;;7.40;2.03;;;;;;;13.43;72.23;100683.69;5030800;28;20034;-70
2022/11/03 09:26:06;;;;;;;10.50;2.63;;;;;;;13.46;72.30;100685.38;5033762;28;20460;-70
2022/11/03 09:28:33;;;;;;;14.07;2.50;;;;;;;13.52;71.87;100682.44;5032747;28;20038;-70
2022/11/03 09:31:01;;;;;;;13.65;2.90;;;;;;;13.55;72.08;100684.97;5034626;28;20352;-70
2022/11/03 09:33:28;;;;;;;9.73;2.85;;;;;;;13.62;71.82;100680.25;5034633;28;20045;-70
2022/11/03 09:35:55;;;;;;;13.75;2.72;;;;;;;13.68;71.57;100674.66;5032201;28;20049;-70
2022/11/03 09:38:22;;;;;;;9.68;2.20;;;;;;;13.72;70.73;100660.34;5023504;28;20112;-70
2022/11/03 09:40:54;;;;;;;10.85;2.50;;;;;;;13.78;70.32;100651.25;5014287;28;20525;-70
2022/11/03 09:43:21;;;;;;;11.27;2.13;;;;;;;13.80;69.83;100644.97;5031041;28;20038;-70
2022/11/03 09:45:48;;;;;;;8.50;2.30;;;;;;;13.84;70.09;100650.13;5031422;28;20068;-70
2022/11/03 09:48:15;;;;;;;14.52;2.38;;;;;;;13.88;70.07;100636.66;5020507;28;20123;-70
2022/11/03 09:50:43;;;;;;;5.72;1.98;;;;;;;13.93;69.56;100631.13;5032532;28;20053;-70
2022/11/03 09:53:11;;;;;;;9.75;1.80;;;;;;;13.95;69.55;100621.28;5034398;28;20046;-70
2022/11/03 09:55:39;;;;;;;8.57;2.10;;;;;;;13.96;69.37;100600.03;5033402;28;20046;-70
2022/11/03 09:58:14;;;;;;;7.82;1.73;;;;;;;14.01;69.24;100593.63;5031733;28;20049;-70
2022/11/03 10:00:42;;;;;;;10.45;1.95;;;;;;;14.00;69.23;100605.16;5033884;28;20821;-70
2022/11/03 10:03:16;;;;;;;7.93;2.15;;;;;;;14.05;68.91;100598.72;5032344;28;20049;-70
2022/11/03 10:05:46;;;;;;;8.57;2.10;;;;;;;14.07;68.74;100590.72;5032856;28;20405;-70
2022/11/03 10:08:28;;;;;;;9.38;1.95;;;;;;;14.10;68.70;100585.25;5030122;28;20058;-70
2022/11/03 10:10:59;;;;;;;8.52;1.88;;;;;;;14.10;68.63;100583.47;5028719;28;20100;-70
2022/11/03 10:13:33;;;;;;;8.10;2.15;;;;;;;14.12;68.09;100592.19;5032590;28;20069;-70
2022/11/03 10:16:04;;;;;;;9.35;2.10;;;;;;;14.17;67.96;100589.31;5032738;28;20042;-70
2022/11/03 10:18:34;;;;;;;8.63;2.03;;;;;;;14.18;68.02;100582.22;5033642;28;20073;-70
2022/11/03 10:21:17;;;;;;;9.70;2.13;;;;;;;14.18;67.93;100576.91;5033367;28;20096;-70
2022/11/03 10:23:45;;;;;;;9.52;2.10;;;;;;;14.19;67.99;100573.34;5031584;28;20057;-70
2022/11/03 10:26:17;;;;;;;10.68;2.22;;;;;;;14.23;68.18;100564.31;5030756;28;20037;-71
2022/11/03 10:29:08;;;;;;;9.48;2.30;;;;;;;14.25;67.69;100557.97;5020170;28;20058;-71
2022/11/03 10:31:39;;;;;;;9.38;1.85;;;;;;;14.26;67.78;100558.81;5032021;28;20436;-70
2022/11/03 10:34:34;;;;;;;7.40;1.80;;;;;;;14.26;67.60;100546.44;5032473;28;20038;-71
2022/11/03 10:37:25;;;;;;;4.63;1.65;;;;;;;14.27;67.46;100540.22;5031325;28;20053;-71
2022/11/03 10:39:55;;;;;;;6.05;1.77;;;;;;;14.31;67.40;100537.38;5026728;28;20038;-70
2022/11/03 10:42:29;;;;;;;7.75;2.00;;;;;;;14.34;67.64;100534.59;5031897;28;20042;-70
2022/11/03 10:45:10;;;;;;;8.35;2.00;;;;;;;14.37;67.24;100516.72;5027251;28;20034;-71
2022/11/03 10:47:38;;;;;;;8.45;2.33;;;;;;;14.37;67.05;100514.06;5032103;28;20046;-71
2022/11/03 10:50:24;;;;;;;3.72;1.60;;;;;;;14.38;66.92;100509.63;5020339;28;20042;-71
2022/11/03 10:52:53;;;;;;;5.43;1.90;;;;;;;14.36;67.30;100506.19;5012948;28;20038;-71
2022/11/03 10:55:24;;;;;;;7.40;1.98;;;;;;;14.36;67.19;100501.75;5017593;28;20092;-70
2022/11/03 10:57:54;;;;;;;6.97;1.65;;;;;;;14.37;66.74;100492.00;5031273;28;20121;-70
2022/11/03 11:00:23;;;;;;;7.88;1.85;;;;;;;14.34;66.76;100490.38;5028925;28;21368;-71
2022/11/03 11:02:59;;;;;;;9.13;1.95;;;;;;;14.33;66.90;100478.06;5025396;28;20038;-70
2022/11/03 11:05:27;;;;;;;9.00;1.80;;;;;;;14.34;66.36;100474.47;5031743;28;20042;-70
2022/11/03 11:07:54;;;;;;;19.77;3.22;;;;;;;14.35;66.45;100470.00;5032403;28;20502;-71
2022/11/03 11:10:30;;;;;;;5.15;1.75;;;;;;;14.35;66.21;100467.34;5039608;28;20105;-70
2022/11/03 11:13:23;;;;;;;4.93;1.63;;;;;;;14.39;65.63;100459.16;5041782;28;20033;-70
2022/11/03 11:16:00;;;;;;;6.30;1.52;;;;;;;14.42;65.60;100459.00;5044113;28;20552;-70
2022/11/03 11:18:27;;;;;;;7.53;2.15;;;;;;;14.45;65.97;100460.63;5016680;28;20788;-71
2022/11/03 11:21:21;;;;;;;6.20;2.05;;;;;;;14.51;65.84;100454.16;5052222;28;20043;-71
2022/11/03 11:23:48;;;;;;;5.72;1.73;;;;;;;14.60;65.39;100451.84;5031018;28;20563;-70
2022/11/03 11:26:31;;;;;;;9.02;2.20;;;;;;;14.73;65.38;100437.97;5033672;28;20034;-70
2022/11/03 11:29:10;;;;;;;7.45;1.92;;;;;;;14.82;64.16;100431.31;5037135;28;20130;-70
2022/11/03 11:31:39;;;;;;;7.70;2.00;;;;;;;14.91;64.31;100433.47;5031923;28;20045;-71
2022/11/03 11:34:13;;;;;;;12.10;1.70;;;;;;;15.01;64.10;100429.34;5032019;28;20140;-70
2022/11/03 11:36:46;;;;;;;7.90;1.85;;;;;;;15.04;64.21;100423.00;5032170;28;20046;-69
2022/11/03 11:39:26;;;;;;;13.23;2.10;;;;;;;15.14;63.96;100426.03;5048267;28;20045;-69
2022/11/03 11:42:13;;;;;;;10.88;2.63;;;;;;;15.21;63.74;100420.25;5031878;28;20045;-70
2022/11/03 11:44:46;;;;;;;11.18;2.92;;;;;;;15.27;63.98;100423.53;5034451;28;20046;-69
2022/11/03 11:47:40;;;;;;;12.10;2.40;;;;;;;15.36;63.80;100413.22;5025542;28;20057;-69
2022/11/03 11:50:09;;;;;;;11.02;2.72;;;;;;;15.43;63.38;100415.53;5030248;28;20044;-69
2022/11/03 11:52:52;;;;;;;9.70;2.50;;;;;;;15.48;63.31;100403.72;5035939;28;20045;-70
2022/11/03 11:55:49;;;;;;;8.93;2.30;;;;;;;15.66;62.87;100375.22;5031544;28;20595;-70
2022/11/03 11:58:32;;;;;;;9.07;2.45;;;;;;;15.77;62.52;100368.41;5016225;28;20495;-70
2022/11/03 12:01:18;;;;;;;10.00;2.28;;;;;;;15.81;62.54;100367.28;5032433;28;20064;-70
2022/11/03 12:03:46;;;;;;;12.80;2.63;;;;;;;15.84;62.12;100373.28;5014690;28;20468;-70
2022/11/03 12:06:14;;;;;;;6.63;2.13;;;;;;;15.80;61.42;100360.25;5032008;28;20046;-70
2022/11/03 12:08:42;;;;;;;7.38;1.77;;;;;;;15.72;61.61;100346.56;5031688;28;20045;-70
2022/11/03 12:11:12;;;;;;;9.80;2.42;;;;;;;15.66;62.00;100340.69;5032996;28;20093;-70